Time;durP1;ratioP1;P1;durP2;ratioP2;P2;SDS_P1;SDS_P2;PMS_P1;PMS_P2;Temp;Humidity;BMP_temperature;BMP_pressure;BME280_temperature;BME280_humidity;BME280_pressure;Samples;Min_cycle;Max_cycle;Signal;HPM_P1;HPM_P2
2023/02/22 00:00:41;;;;;;;13.43;8.00;;;;;;;8.11;91.97;100377.78;5009516;28;20512;-68
2023/02/22 00:03:25;;;;;;;14.82;7.97;;;;;;;8.03;92.28;100370.34;5006786;28;20028;-67
2023/02/22 00:05:57;;;;;;;10.07;6.75;;;;;;;8.10;92.28;100386.78;5009458;28;20558;-74
2023/02/22 00:08:29;;;;;;;11.00;6.85;;;;;;;8.03;91.59;100389.03;5008824;28;20080;-67
2023/02/22 00:11:01;;;;;;;15.25;7.57;;;;;;;7.80;91.88;100365.09;5007335;28;20022;-67
2023/02/22 00:13:28;;;;;;;10.90;7.47;;;;;;;7.94;92.01;100373.75;5008664;28;20416;-73
2023/02/22 00:15:58;;;;;;;9.80;6.97;;;;;;;8.13;91.91;100379.34;5011467;28;20111;-75
2023/02/22 00:18:26;;;;;;;10.07;6.72;;;;;;;8.18;91.30;100376.34;5009575;28;20630;-75
2023/02/22 00:20:52;;;;;;;12.10;6.70;;;;;;;8.31;91.05;100380.66;5013737;28;20039;-75
2023/02/22 00:23:20;;;;;;;13.25;6.95;;;;;;;8.35;90.44;100383.97;5012853;28;20030;-75
2023/02/22 00:25:48;;;;;;;11.10;6.63;;;;;;;8.33;89.99;100385.88;5009930;28;20025;-74
2023/02/22 00:28:16;;;;;;;10.48;6.20;;;;;;;8.32;89.87;100386.88;5019459;28;20037;-75
2023/02/22 00:30:42;;;;;;;10.77;6.43;;;;;;;8.21;90.74;100384.13;5017283;28;20041;-74
2023/02/22 00:33:10;;;;;;;11.65;7.13;;;;;;;8.11;91.45;100377.78;5020576;28;20049;-75
2023/02/22 00:35:35;;;;;;;11.38;7.47;;;;;;;8.20;90.64;100395.78;5013248;28;20122;-74
2023/02/22 00:38:02;;;;;;;13.98;7.40;;;;;;;8.15;91.47;100397.94;5013256;28;20049;-75
2023/02/22 00:40:31;;;;;;;10.05;7.25;;;;;;;8.15;91.80;100390.78;5012002;28;20422;-74
2023/02/22 00:42:58;;;;;;;11.82;7.25;;;;;;;8.23;91.78;100403.59;5012098;28;20025;-74
2023/02/22 00:45:25;;;;;;;12.82;8.18;;;;;;;8.21;91.14;100395.66;5012526;28;20086;-75
2023/02/22 00:47:52;;;;;;;14.50;7.82;;;;;;;8.12;92.19;100399.03;5013922;28;20041;-75
2023/02/22 00:50:19;;;;;;;11.35;7.80;;;;;;;8.17;91.50;100396.00;5013349;28;20030;-74
2023/02/22 00:52:45;;;;;;;11.48;7.53;;;;;;;8.14;91.65;100391.78;5016657;28;20129;-75
2023/02/22 00:55:17;;;;;;;11.95;7.63;;;;;;;8.02;92.06;100382.00;5014838;28;20029;-75
2023/02/22 00:57:42;;;;;;;11.43;7.93;;;;;;;7.91;92.36;100375.78;5011563;28;20291;-75
2023/02/22 01:00:14;;;;;;;12.85;7.78;;;;;;;7.95;92.59;100393.28;5010472;28;20033;-74
2023/02/22 01:02:41;;;;;;;13.98;8.70;;;;;;;7.86;93.43;100396.63;5011304;28;20028;-75
2023/02/22 01:05:08;;;;;;;13.27;8.63;;;;;;;7.81;93.07;100393.47;5014366;28;20033;-75
2023/02/22 01:07:34;;;;;;;14.23;8.27;;;;;;;7.70;93.62;100377.44;5017711;28;20095;-75
2023/02/22 01:10:00;;;;;;;13.85;8.77;;;;;;;7.77;93.30;100381.31;5014770;28;20022;-74
2023/02/22 01:12:27;;;;;;;14.27;8.52;;;;;;;7.81;93.43;100389.00;5013082;28;20478;-74
2023/02/22 01:14:55;;;;;;;12.93;8.40;;;;;;;7.68;94.06;100376.69;5011408;28;20042;-74
2023/02/22 01:17:22;;;;;;;14.85;8.60;;;;;;;7.59;94.33;100377.34;5011266;28;20492;-74
2023/02/22 01:19:47;;;;;;;13.35;8.18;;;;;;;7.69;93.52;100391.72;5011990;28;20464;-75
2023/02/22 01:22:13;;;;;;;13.35;8.30;;;;;;;7.65;93.66;100380.44;5011819;28;20025;-75
2023/02/22 01:24:38;;;;;;;12.60;8.52;;;;;;;7.55;94.06;100374.09;5010274;28;20029;-74
2023/02/22 01:27:04;;;;;;;13.63;8.95;;;;;;;7.64;93.66;100383.22;5011206;28;20022;-74
2023/02/22 01:29:29;;;;;;;14.45;9.38;;;;;;;7.72;93.28;100388.81;5009057;28;20112;-74
2023/02/22 01:31:55;;;;;;;15.20;8.70;;;;;;;7.64;93.08;100397.41;5011087;28;20030;-73
2023/02/22 01:34:22;;;;;;;15.98;9.35;;;;;;;7.52;93.54;100400.13;5011689;28;20030;-75
2023/02/22 01:36:48;;;;;;;12.10;8.50;;;;;;;7.43;94.74;100400.81;5010700;28;20053;-74
2023/02/22 01:39:16;;;;;;;18.77;8.60;;;;;;;7.42;94.27;100389.28;5010621;28;20099;-75
2023/02/22 01:41:45;;;;;;;16.25;9.73;;;;;;;7.43;94.86;100391.00;5008774;28;20416;-75
2023/02/22 01:44:18;;;;;;;15.70;8.77;;;;;;;7.49;94.15;100389.69;5009816;28;20483;-73
2023/02/22 01:46:43;;;;;;;15.93;9.82;;;;;;;7.48;94.07;100394.16;5012180;28;20117;-74
2023/02/22 01:49:09;;;;;;;16.48;10.68;;;;;;;7.41;94.44;100394.75;5010641;28;20036;-73
2023/02/22 01:51:43;;;;;;;13.02;9.43;;;;;;;7.30;94.95;100386.66;5009379;28;20041;-74
2023/02/22 01:54:19;;;;;;;16.47;9.40;;;;;;;7.27;95.73;100394.88;5008831;28;20022;-74
2023/02/22 01:56:59;;;;;;;14.35;9.27;;;;;;;7.15;95.56;100390.47;5009566;28;20285;-75
2023/02/22 01:59:24;;;;;;;13.93;9.07;;;;;;;7.04;96.32;100373.41;5009998;28;20022;-73
2023/02/22 02:01:50;;;;;;;16.42;9.15;;;;;;;7.17;96.46;100385.84;5008324;28;20033;-74
2023/02/22 02:04:24;;;;;;;13.35;8.85;;;;;;;7.09;96.09;100370.41;5008661;28;20021;-74
2023/02/22 02:06:52;;;;;;;12.77;8.57;;;;;;;7.02;96.73;100368.31;5008956;28;20432;-74
2023/02/22 02:09:38;;;;;;;15.77;8.63;;;;;;;6.94;96.97;100367.03;5007448;28;20041;-74
2023/02/22 02:12:07;;;;;;;15.55;9.43;;;;;;;6.86;97.63;100369.41;5008742;28;20453;-74
2023/02/22 02:14:39;;;;;;;13.13;8.90;;;;;;;6.77;97.38;100369.19;5009906;28;20037;-74
2023/02/22 02:17:12;;;;;;;13.77;8.43;;;;;;;6.70;97.37;100367.94;5008621;28;20060;-74
2023/02/22 02:20:10;;;;;;;14.40;9.35;;;;;;;6.68;97.86;100365.38;5007280;28;20030;-74
2023/02/22 02:23:17;;;;;;;14.80;9.13;;;;;;;6.58;98.27;100366.16;5007014;28;20056;-74
2023/02/22 02:25:49;;;;;;;17.23;9.90;;;;;;;6.53;97.78;100373.63;4980823;28;20520;-74
2023/02/22 02:28:53;;;;;;;14.77;9.45;;;;;;;6.42;96.53;100371.69;5008894;28;20029;-74
2023/02/22 02:31:40;;;;;;;15.93;9.95;;;;;;;6.33;97.02;100368.84;5007297;28;20689;-73
2023/02/22 02:34:48;;;;;;;17.88;11.45;;;;;;;6.27;96.66;100363.94;5007088;28;20403;-74
2023/02/22 02:37:32;;;;;;;21.73;11.15;;;;;;;6.21;97.41;100364.34;5007869;28;20041;-74
2023/02/22 02:40:28;;;;;;;21.27;11.87;;;;;;;6.14;97.49;100373.72;5007166;28;20028;-75
2023/02/22 02:43:30;;;;;;;18.23;11.45;;;;;;;6.10;98.25;100372.25;5007196;28;20044;-74
2023/02/22 02:46:07;;;;;;;16.75;9.85;;;;;;;6.08;98.51;100368.81;4987238;28;20543;-74
2023/02/22 02:48:36;;;;;;;15.25;8.88;;;;;;;5.93;98.82;100348.59;5006382;28;20103;-75
2023/02/22 02:51:05;;;;;;;15.88;9.20;;;;;;;6.08;99.11;100380.34;5008390;28;20053;-74
2023/02/22 02:53:40;;;;;;;14.48;8.68;;;;;;;6.05;99.56;100380.53;5008424;28;20538;-74
2023/02/22 02:56:06;;;;;;;14.40;9.35;;;;;;;6.00;100.00;100366.69;5006419;28;20030;-75
2023/02/22 02:58:32;;;;;;;14.40;9.18;;;;;;;6.08;100.00;100380.34;5008028;28;20068;-74
2023/02/22 03:01:01;;;;;;;20.85;11.55;;;;;;;6.31;100.00;100378.72;5009919;28;20026;-73
2023/02/22 03:03:48;;;;;;;19.48;12.02;;;;;;;6.29;100.00;100370.84;5005929;28;20037;-74
2023/02/22 03:06:46;;;;;;;24.05;12.32;;;;;;;6.32;100.00;100394.59;5007782;28;20148;-74
2023/02/22 03:09:33;;;;;;;19.48;10.77;;;;;;;6.25;100.00;100388.00;4992206;28;20475;-75
2023/02/22 03:12:04;;;;;;;16.30;10.07;;;;;;;6.19;100.00;100393.75;5011506;28;20109;-75
2023/02/22 03:14:54;;;;;;;14.05;9.38;;;;;;;6.14;100.00;100390.56;5011940;28;20026;-73
2023/02/22 03:17:43;;;;;;;12.25;8.27;;;;;;;6.20;100.00;100384.81;5011193;28;20467;-73
2023/02/22 03:20:30;;;;;;;14.00;9.02;;;;;;;6.12;100.00;100387.16;5009238;28;20060;-73
2023/02/22 03:23:06;;;;;;;15.90;9.73;;;;;;;6.16;100.00;100391.28;5009762;28;20025;-73
2023/02/22 03:25:42;;;;;;;13.65;9.18;;;;;;;6.11;100.00;100389.91;5013236;28;20026;-73
2023/02/22 03:28:12;;;;;;;13.23;9.70;;;;;;;6.05;100.00;100383.19;5009901;28;20037;-69
2023/02/22 03:30:53;;;;;;;12.82;9.13;;;;;;;5.94;100.00;100361.75;5009312;28;20136;-68
2023/02/22 03:33:32;;;;;;;14.50;9.00;;;;;;;5.95;100.00;100379.47;5008404;28;20085;-69
2023/02/22 03:36:06;;;;;;;16.90;10.13;;;;;;;5.94;100.00;100384.88;5008479;28;20091;-68
2023/02/22 03:38:36;;;;;;;18.02;9.63;;;;;;;5.90;100.00;100381.56;5009738;28;20678;-68
2023/02/22 03:41:04;;;;;;;16.63;9.70;;;;;;;5.94;100.00;100399.03;5008401;28;20041;-67
2023/02/22 03:43:43;;;;;;;13.05;8.90;;;;;;;5.82;100.00;100383.06;5009994;28;20026;-67
2023/02/22 03:46:10;;;;;;;16.17;9.60;;;;;;;5.84;100.00;100384.63;5009857;28;20400;-67
2023/02/22 03:49:14;;;;;;;13.43;8.70;;;;;;;5.91;100.00;100393.94;5010585;28;20441;-68
2023/02/22 03:51:40;;;;;;;15.82;9.13;;;;;;;5.90;100.00;100392.22;4995714;28;20064;-68
2023/02/22 03:54:06;;;;;;;13.98;9.35;;;;;;;5.81;100.00;100379.53;5009396;28;20502;-68
2023/02/22 03:56:54;;;;;;;14.18;9.85;;;;;;;5.66;100.00;100342.44;5011482;28;20042;-68
2023/02/22 03:59:24;;;;;;;13.00;9.43;;;;;;;5.95;100.00;100376.81;5009541;28;20025;-68
2023/02/22 04:01:51;;;;;;;14.27;9.98;;;;;;;6.08;100.00;100411.41;5017292;28;20049;-68
2023/02/22 04:04:17;;;;;;;14.30;9.45;;;;;;;5.92;100.00;100389.44;5013119;28;20029;-68
2023/02/22 04:06:43;;;;;;;13.18;9.95;;;;;;;6.00;100.00;100387.97;5010122;28;20077;-76
2023/02/22 04:09:09;;;;;;;14.57;9.73;;;;;;;6.09;100.00;100403.31;5014111;28;20100;-76
2023/02/22 04:11:34;;;;;;;14.35;9.77;;;;;;;6.09;100.00;100398.00;5010481;28;20819;-78
2023/02/22 04:14:00;;;;;;;14.40;9.07;;;;;;;6.03;100.00;100387.75;5011072;28;20029;-68
2023/02/22 04:16:25;;;;;;;13.73;9.20;;;;;;;6.06;100.00;100390.22;5010762;28;20131;-68
2023/02/22 04:18:51;;;;;;;14.85;10.27;;;;;;;5.95;100.00;100363.50;5010562;28;20397;-68
2023/02/22 04:21:16;;;;;;;12.15;9.35;;;;;;;5.98;100.00;100368.63;5015007;28;20041;-68
2023/02/22 04:23:42;;;;;;;14.75;9.85;;;;;;;6.13;100.00;100350.72;5008476;28;20034;-68
2023/02/22 04:26:07;;;;;;;15.00;9.15;;;;;;;6.39;100.00;100395.88;5013564;28;20706;-68
2023/02/22 04:28:33;;;;;;;12.50;8.65;;;;;;;6.38;100.00;100396.84;5008728;28;20127;-68
2023/02/22 04:30:58;;;;;;;13.50;9.43;;;;;;;6.25;100.00;100377.34;5012103;28;20468;-68
2023/02/22 04:33:24;;;;;;;12.88;9.20;;;;;;;6.16;100.00;100374.50;5007948;28;20026;-68
2023/02/22 04:35:50;;;;;;;12.70;8.50;;;;;;;6.28;100.00;100392.25;5007843;28;20109;-68
2023/02/22 04:38:16;;;;;;;13.65;9.27;;;;;;;6.10;100.00;100361.59;5005680;28;20026;-68
2023/02/22 04:40:41;;;;;;;14.82;9.40;;;;;;;6.15;100.00;100370.97;5008816;28;20061;-68
2023/02/22 04:43:07;;;;;;;15.25;9.50;;;;;;;6.30;100.00;100380.56;5007731;28;20021;-68
2023/02/22 04:45:32;;;;;;;15.48;9.88;;;;;;;6.35;100.00;100394.41;5007797;28;20033;-68
2023/02/22 04:47:58;;;;;;;12.73;9.15;;;;;;;6.24;100.00;100386.31;5008064;28;20099;-68
2023/02/22 04:50:23;;;;;;;12.32;8.00;;;;;;;6.12;100.00;100370.31;5008546;28;20026;-68
2023/02/22 04:52:48;;;;;;;12.77;8.35;;;;;;;6.31;100.00;100376.94;5007846;28;20038;-68
2023/02/22 04:55:15;;;;;;;15.05;9.73;;;;;;;6.22;100.00;100377.56;5007909;28;20030;-68
2023/02/22 04:57:41;;;;;;;14.68;10.45;;;;;;;6.33;100.00;100376.81;5008038;28;20022;-75
2023/02/22 05:00:09;;;;;;;13.02;9.45;;;;;;;6.48;100.00;100395.25;5010512;28;20084;-75
2023/02/22 05:02:37;;;;;;;13.30;9.02;;;;;;;6.41;100.00;100401.97;5007859;28;20025;-75
2023/02/22 05:05:03;;;;;;;13.85;9.52;;;;;;;6.44;100.00;100403.56;5009523;28;20117;-75
2023/02/22 05:07:29;;;;;;;13.32;9.23;;;;;;;6.30;100.00;100391.22;5007478;28;20029;-75
2023/02/22 05:09:54;;;;;;;15.27;9.02;;;;;;;6.33;100.00;100396.34;5008429;28;20045;-75
2023/02/22 05:12:20;;;;;;;13.00;9.77;;;;;;;6.25;100.00;100382.69;5009149;28;20033;-75
2023/02/22 05:14:45;;;;;;;14.68;9.90;;;;;;;6.30;100.00;100401.88;5008622;28;20030;-75
2023/02/22 05:17:11;;;;;;;18.17;8.90;;;;;;;6.36;100.00;100390.75;5008187;28;20518;-75
2023/02/22 05:19:37;;;;;;;17.00;9.52;;;;;;;6.42;100.00;100400.16;5008364;28;20088;-75
2023/02/22 05:22:04;;;;;;;13.93;8.75;;;;;;;6.33;100.00;100393.66;5008766;28;20064;-76
2023/02/22 05:24:31;;;;;;;14.05;9.48;;;;;;;6.42;100.00;100400.16;5007533;28;20444;-75
2023/02/22 05:26:56;;;;;;;14.50;9.65;;;;;;;6.36;100.00;100408.59;5008227;28;20036;-75
2023/02/22 05:29:22;;;;;;;15.95;9.68;;;;;;;6.33;100.00;100406.13;5007598;28;20139;-75
2023/02/22 05:31:47;;;;;;;15.38;9.38;;;;;;;6.32;100.00;100412.41;5007690;28;20706;-75
2023/02/22 05:34:14;;;;;;;15.93;9.43;;;;;;;6.36;100.00;100422.72;5007866;28;20054;-75
2023/02/22 05:36:39;;;;;;;17.10;10.98;;;;;;;6.34;100.00;100410.47;5008001;28;20026;-75
2023/02/22 05:39:05;;;;;;;13.68;9.88;;;;;;;6.38;100.00;100422.63;5007116;28;20032;-75
2023/02/22 05:41:30;;;;;;;13.85;9.80;;;;;;;6.36;100.00;100430.72;5011327;28;20029;-75
2023/02/22 05:43:56;;;;;;;16.27;10.48;;;;;;;6.34;100.00;100431.78;5007875;28;20018;-74
2023/02/22 05:46:21;;;;;;;15.07;9.75;;;;;;;6.24;100.00;100414.75;5006973;28;20033;-75
2023/02/22 05:48:46;;;;;;;15.45;9.25;;;;;;;6.34;100.00;100429.13;5007792;28;20033;-75
2023/02/22 05:51:12;;;;;;;13.13;9.88;;;;;;;6.42;100.00;100435.63;5010316;28;20033;-75
2023/02/22 05:53:37;;;;;;;14.25;9.60;;;;;;;6.52;100.00;100435.88;5007490;28;20037;-75
2023/02/22 05:56:03;;;;;;;13.73;9.25;;;;;;;6.46;100.00;100442.47;5006634;28;20034;-76
2023/02/22 05:58:29;;;;;;;14.48;9.95;;;;;;;6.35;100.00;100404.19;5007511;28;20038;-74
2023/02/22 06:00:54;;;;;;;12.82;9.65;;;;;;;6.64;100.00;100437.66;5008704;28;20075;-73
2023/02/22 06:03:19;;;;;;;14.32;9.65;;;;;;;6.62;100.00;100429.75;5007523;28;20104;-75
2023/02/22 06:05:45;;;;;;;14.10;9.35;;;;;;;6.78;100.00;100442.88;5007741;28;20721;-74
2023/02/22 06:08:11;;;;;;;14.85;8.88;;;;;;;6.79;100.00;100460.59;5006398;28;20040;-74
2023/02/22 06:10:36;;;;;;;14.15;9.02;;;;;;;6.72;100.00;100452.19;5007090;28;20034;-75
2023/02/22 06:13:03;;;;;;;14.43;9.27;;;;;;;6.80;100.00;100464.94;5006504;28;20042;-75
2023/02/22 06:15:29;;;;;;;14.35;8.77;;;;;;;6.93;100.00;100468.44;5007752;28;20048;-75
2023/02/22 06:17:56;;;;;;;12.20;8.95;;;;;;;6.95;100.00;100443.41;5004512;28;20049;-68
2023/02/22 06:20:23;;;;;;;15.10;10.13;;;;;;;7.08;100.00;100432.72;5005493;28;20428;-68
2023/02/22 06:22:54;;;;;;;25.55;13.00;;;;;;;7.28;100.00;100463.31;5004219;28;20112;-67
2023/02/22 06:25:23;;;;;;;33.20;17.27;;;;;;;7.16;100.00;100451.66;5004589;28;20033;-67
2023/02/22 06:27:49;;;;;;;21.90;14.50;;;;;;;7.16;100.00;100475.66;4998078;28;20058;-68
2023/02/22 06:30:16;;;;;;;15.88;11.38;;;;;;;7.19;100.00;100493.28;5005317;28;20199;-68
2023/02/22 06:32:42;;;;;;;19.02;10.82;;;;;;;7.27;100.00;100490.91;5004647;28;20511;-68
2023/02/22 06:35:08;;;;;;;15.25;10.90;;;;;;;7.18;100.00;100492.44;5004002;28;20034;-68
2023/02/22 06:37:34;;;;;;;18.17;10.55;;;;;;;7.25;100.00;100506.19;5003451;28;20546;-68
2023/02/22 06:39:59;;;;;;;17.58;10.85;;;;;;;7.35;100.00;100500.06;5006503;28;20132;-69
2023/02/22 06:42:25;;;;;;;15.13;9.82;;;;;;;7.46;100.00;100504.66;5007971;28;20029;-67
2023/02/22 06:44:50;;;;;;;16.23;10.35;;;;;;;7.42;100.00;100506.69;5009887;28;20021;-75
2023/02/22 06:47:15;;;;;;;15.25;9.65;;;;;;;7.51;100.00;100521.19;5008620;28;20038;-75
2023/02/22 06:49:41;;;;;;;12.02;9.80;;;;;;;7.52;100.00;100515.75;5006787;28;20041;-75
2023/02/22 06:52:08;;;;;;;15.65;9.65;;;;;;;7.64;100.00;100511.34;5009540;28;20084;-75
2023/02/22 06:54:34;;;;;;;12.45;9.32;;;;;;;7.62;100.00;100503.44;5011367;28;20030;-75
2023/02/22 06:56:59;;;;;;;14.23;9.88;;;;;;;7.72;100.00;100528.50;5007302;28;20609;-74
2023/02/22 06:59:25;;;;;;;15.63;9.48;;;;;;;7.78;100.00;100528.06;5009413;28;20459;-75
2023/02/22 07:01:50;;;;;;;14.00;9.07;;;;;;;7.88;100.00;100514.88;5010993;28;20029;-76
2023/02/22 07:04:16;;;;;;;13.90;8.93;;;;;;;7.99;100.00;100529.13;5013111;28;20018;-75
2023/02/22 07:06:48;;;;;;;13.32;9.25;;;;;;;8.07;100.00;100534.78;5011591;28;20056;-75
2023/02/22 07:09:16;;;;;;;11.10;8.95;;;;;;;8.12;100.00;100526.38;5011280;28;20033;-75
2023/02/22 07:11:42;;;;;;;11.52;8.50;;;;;;;8.14;100.00;100517.31;5011281;28;20117;-75
2023/02/22 07:14:08;;;;;;;12.98;9.23;;;;;;;8.25;99.43;100532.56;5013768;28;20033;-74
2023/02/22 07:16:33;;;;;;;14.68;9.35;;;;;;;8.29;99.04;100534.06;5011723;28;20049;-75
2023/02/22 07:18:59;;;;;;;14.68;10.13;;;;;;;8.44;98.88;100538.22;5010564;28;20072;-75
2023/02/22 07:21:25;;;;;;;13.95;9.90;;;;;;;8.44;96.94;100504.34;5009091;28;20025;-68
2023/02/22 07:23:56;;;;;;;15.45;9.77;;;;;;;8.50;97.58;100519.06;5008896;28;20114;-68
2023/02/22 07:26:22;;;;;;;15.05;9.05;;;;;;;8.67;97.31;100543.53;5009775;28;20464;-67
2023/02/22 07:28:48;;;;;;;13.32;9.13;;;;;;;8.69;96.36;100520.22;5011526;28;20040;-69
2023/02/22 07:31:14;;;;;;;11.57;8.88;;;;;;;8.84;95.81;100539.59;5009234;28;20113;-69
2023/02/22 07:33:40;;;;;;;13.98;9.52;;;;;;;8.77;95.63;100527.66;5009954;28;20022;-69
2023/02/22 07:36:06;;;;;;;12.38;8.77;;;;;;;8.86;95.48;100530.47;5008075;28;20505;-69
2023/02/22 07:38:32;;;;;;;13.85;9.48;;;;;;;8.82;95.65;100509.41;5007783;28;20030;-69
2023/02/22 07:40:57;;;;;;;12.90;9.27;;;;;;;8.97;95.70;100511.75;5009419;28;20037;-70
2023/02/22 07:43:28;;;;;;;13.93;9.30;;;;;;;9.26;94.40;100536.22;5009709;28;20435;-75
2023/02/22 07:45:58;;;;;;;14.23;9.25;;;;;;;9.39;93.41;100533.44;5012514;28;20498;-75
2023/02/22 07:48:27;;;;;;;11.32;8.63;;;;;;;9.41;93.11;100531.50;5008547;28;20099;-75
2023/02/22 07:50:53;;;;;;;12.50;8.80;;;;;;;9.52;93.26;100526.13;5006956;28;20551;-73
2023/02/22 07:53:24;;;;;;;12.73;8.63;;;;;;;9.68;92.16;100522.09;5009238;28;20061;-75
2023/02/22 07:55:50;;;;;;;14.07;9.02;;;;;;;9.81;91.55;100522.81;5008690;28;20053;-68
2023/02/22 07:58:20;;;;;;;10.98;8.50;;;;;;;10.03;90.27;100517.38;5004623;28;20030;-68
2023/02/22 08:00:48;;;;;;;10.48;8.88;;;;;;;10.56;87.85;100523.66;5007964;28;20381;-68
2023/02/22 08:03:16;;;;;;;10.93;8.43;;;;;;;11.24;83.10;100524.81;5009069;28;20040;-75
2023/02/22 08:05:46;;;;;;;11.02;8.13;;;;;;;12.16;76.08;100519.16;5007713;28;20543;-74
2023/02/22 08:08:14;;;;;;;10.85;8.38;;;;;;;12.93;71.35;100518.13;5006943;28;20647;-74
2023/02/22 08:10:40;;;;;;;12.48;9.18;;;;;;;13.74;66.90;100504.00;5009205;28;20049;-74
2023/02/22 08:13:06;;;;;;;11.23;7.78;;;;;;;14.39;63.96;100519.91;5008294;28;20034;-74
2023/02/22 08:15:34;;;;;;;15.18;9.13;;;;;;;15.06;60.47;100512.00;5010340;28;20081;-75
2023/02/22 08:18:01;;;;;;;13.95;8.70;;;;;;;15.57;57.92;100519.28;5011001;28;20377;-75
2023/02/22 08:20:28;;;;;;;9.43;6.72;;;;;;;15.58;56.33;100515.56;5007634;28;20148;-76
2023/02/22 08:22:55;;;;;;;7.43;5.72;;;;;;;15.50;56.39;100520.94;5006472;28;20042;-76
2023/02/22 08:25:26;;;;;;;9.02;6.10;;;;;;;15.00;57.85;100512.63;5010115;28;20029;-75
2023/02/22 08:27:57;;;;;;;7.85;6.28;;;;;;;14.64;58.33;100518.28;5009829;28;20478;-74
2023/02/22 08:30:23;;;;;;;8.55;6.13;;;;;;;14.18;59.79;100521.19;5008228;28;20021;-74
2023/02/22 08:32:50;;;;;;;8.77;5.93;;;;;;;13.84;60.60;100517.41;5010374;28;20030;-76
2023/02/22 08:35:17;;;;;;;8.52;5.93;;;;;;;13.54;61.77;100522.09;5014582;28;20083;-75
2023/02/22 08:37:44;;;;;;;9.10;5.43;;;;;;;13.28;61.91;100517.50;5010567;28;20042;-75
2023/02/22 08:40:10;;;;;;;7.18;5.60;;;;;;;13.05;62.95;100527.78;5005860;28;20030;-76
2023/02/22 08:42:35;;;;;;;10.75;6.30;;;;;;;12.78;63.19;100516.91;5009271;28;20530;-76
2023/02/22 08:45:01;;;;;;;12.15;5.88;;;;;;;12.56;63.54;100517.22;5008226;28;20023;-75
2023/02/22 08:47:26;;;;;;;12.85;6.63;;;;;;;12.36;64.07;100528.09;5008831;28;20034;-75
2023/02/22 08:49:52;;;;;;;10.50;5.55;;;;;;;12.20;64.08;100519.75;5009205;28;20036;-76
2023/02/22 08:52:20;;;;;;;9.63;5.97;;;;;;;12.05;65.00;100513.91;5010005;28;20037;-74
2023/02/22 08:54:46;;;;;;;12.75;5.78;;;;;;;11.90;65.36;100504.53;5011030;28;20018;-74
2023/02/22 08:57:11;;;;;;;9.93;5.55;;;;;;;11.95;65.88;100526.50;5009337;28;20104;-74
2023/02/22 08:59:37;;;;;;;16.83;7.30;;;;;;;11.79;65.53;100519.94;5008532;28;20112;-74
2023/02/22 09:02:02;;;;;;;14.75;6.85;;;;;;;11.72;65.58;100525.03;5009177;28;20503;-74
2023/02/22 09:04:28;;;;;;;14.25;5.40;;;;;;;11.64;66.29;100505.22;5008954;28;20028;-74
2023/02/22 09:06:53;;;;;;;11.35;5.63;;;;;;;11.73;65.98;100515.13;5007539;28;20511;-75
2023/02/22 09:09:20;;;;;;;10.85;6.15;;;;;;;11.76;66.38;100523.75;5007740;28;20507;-75
2023/02/22 09:11:47;;;;;;;12.48;5.90;;;;;;;11.68;66.90;100512.84;5007993;28;20033;-74
2023/02/22 09:14:13;;;;;;;12.52;6.53;;;;;;;11.71;66.81;100522.47;5008598;28;20030;-75
2023/02/22 09:16:39;;;;;;;16.15;7.43;;;;;;;11.73;66.43;100517.81;5009536;28;20042;-74
2023/02/22 09:19:05;;;;;;;10.80;6.40;;;;;;;11.81;67.08;100532.28;5008436;28;20056;-75
2023/02/22 09:21:30;;;;;;;11.48;6.30;;;;;;;11.75;66.05;100519.38;5009019;28;20079;-75
2023/02/22 09:23:56;;;;;;;13.02;6.25;;;;;;;11.77;65.56;100516.56;5008869;28;20113;-76
2023/02/22 09:26:26;;;;;;;11.82;5.95;;;;;;;11.87;65.97;100520.13;5007975;28;20538;-75
2023/02/22 09:28:52;;;;;;;10.60;5.78;;;;;;;11.90;65.46;100517.16;5007582;28;20026;-75
2023/02/22 09:31:17;;;;;;;11.90;6.35;;;;;;;12.03;65.06;100512.38;5008317;28;20029;-74
2023/02/22 09:33:43;;;;;;;11.93;5.88;;;;;;;12.30;64.35;100525.97;5007772;28;20026;-74
2023/02/22 09:36:09;;;;;;;13.57;5.75;;;;;;;12.47;64.26;100528.81;5007533;28;20179;-75
2023/02/22 09:38:35;;;;;;;12.52;5.32;;;;;;;12.59;63.36;100505.31;5010445;28;20821;-69
2023/02/22 09:41:15;;;;;;;10.77;5.47;;;;;;;13.07;61.38;100524.97;5006252;28;20037;-68
2023/02/22 09:43:55;;;;;;;9.00;5.30;;;;;;;13.60;60.07;100524.19;5004663;28;20121;-69
2023/02/22 09:46:33;;;;;;;10.70;5.40;;;;;;;15.47;55.38;100518.53;5008655;28;20034;-69
2023/02/22 09:49:14;;;;;;;12.43;5.45;;;;;;;18.21;48.15;100512.94;5006908;28;20034;-69
2023/02/22 09:51:49;;;;;;;11.63;5.80;;;;;;;20.17;42.11;100470.72;5004169;28;20044;-69
2023/02/22 09:54:27;;;;;;;10.90;5.63;;;;;;;21.97;38.64;100508.94;5006021;28;20038;-69
2023/02/22 09:56:57;;;;;;;10.23;4.70;;;;;;;23.26;36.01;100493.03;5006428;28;20026;-69
2023/02/22 09:59:30;;;;;;;10.15;4.22;;;;;;;24.53;33.97;100501.22;5005947;28;20029;-69
2023/02/22 10:02:05;;;;;;;6.37;4.37;;;;;;;25.13;33.06;100492.38;5006756;28;20038;-70
2023/02/22 10:04:44;;;;;;;7.43;4.53;;;;;;;25.63;31.75;100495.94;5006297;28;20026;-69
2023/02/22 10:07:17;;;;;;;7.90;5.00;;;;;;;26.30;30.76;100493.88;5005632;28;20033;-69
2023/02/22 10:09:47;;;;;;;11.40;4.78;;;;;;;26.43;30.42;100484.59;5005562;28;20038;-70
2023/02/22 10:12:37;;;;;;;6.85;4.50;;;;;;;26.51;29.77;100490.59;5005615;28;20590;-69
2023/02/22 10:15:21;;;;;;;12.20;5.70;;;;;;;26.83;29.40;100491.22;5004014;28;20034;-70
2023/02/22 10:17:57;;;;;;;10.05;5.03;;;;;;;27.18;28.83;100472.81;5003768;28;20191;-71
2023/02/22 10:20:44;;;;;;;7.13;4.75;;;;;;;27.52;28.56;100474.78;5007140;28;20032;-69
2023/02/22 10:23:22;;;;;;;6.72;4.85;;;;;;;27.53;28.70;100478.38;5005821;28;20053;-76
2023/02/22 10:25:56;;;;;;;9.00;4.47;;;;;;;26.97;28.63;100470.66;5006895;28;20040;-76
2023/02/22 10:28:36;;;;;;;9.50;5.13;;;;;;;24.91;31.27;100480.09;5006765;28;20036;-77
2023/02/22 10:31:08;;;;;;;6.20;4.57;;;;;;;23.21;33.80;100479.13;5007172;28;20116;-77
2023/02/22 10:33:47;;;;;;;10.32;5.50;;;;;;;21.77;36.24;100467.88;5005341;28;20026;-77
2023/02/22 10:36:19;;;;;;;9.10;5.45;;;;;;;20.73;38.35;100464.38;5007305;28;20041;-75
2023/02/22 10:38:58;;;;;;;9.27;5.80;;;;;;;19.69;40.71;100458.59;5008953;28;20029;-75
2023/02/22 10:41:33;;;;;;;9.10;5.97;;;;;;;18.85;42.51;100477.19;5008193;28;20056;-76
2023/02/22 10:44:00;;;;;;;12.15;6.20;;;;;;;18.24;43.69;100468.28;5008418;28;20694;-68
2023/02/22 10:46:29;;;;;;;8.65;6.20;;;;;;;17.74;45.15;100477.72;5005140;28;20037;-70
2023/02/22 10:49:06;;;;;;;9.55;5.93;;;;;;;17.03;46.27;100413.75;5007033;28;20064;-69
2023/02/22 10:51:32;;;;;;;9.43;5.50;;;;;;;16.97;47.47;100452.38;5005001;28;20030;-70
2023/02/22 10:54:13;;;;;;;11.55;6.20;;;;;;;16.73;48.09;100455.94;5006767;28;20029;-70
2023/02/22 10:56:54;;;;;;;8.65;5.68;;;;;;;16.61;48.78;100464.59;5005460;28;20037;-69
2023/02/22 10:59:28;;;;;;;12.75;6.20;;;;;;;16.38;49.07;100418.34;5006629;28;20696;-69
2023/02/22 11:01:53;;;;;;;10.68;5.90;;;;;;;16.47;49.46;100451.75;5005106;28;20044;-71
2023/02/22 11:04:20;;;;;;;9.43;5.55;;;;;;;16.34;49.32;100432.44;5006358;28;20026;-71
2023/02/22 11:07:08;;;;;;;7.10;5.40;;;;;;;16.10;50.28;100427.84;5003975;28;20049;-70
2023/02/22 11:09:58;;;;;;;10.90;5.80;;;;;;;16.07;50.24;100438.13;5006577;28;20388;-76
2023/02/22 11:12:38;;;;;;;8.45;6.20;;;;;;;15.96;50.84;100433.03;5006701;28;20052;-76
2023/02/22 11:15:16;;;;;;;8.57;6.15;;;;;;;15.83;51.31;100425.38;5006335;28;20045;-76
2023/02/22 11:17:43;;;;;;;9.60;5.72;;;;;;;15.72;51.25;100431.13;5005013;28;20572;-76
2023/02/22 11:20:28;;;;;;;8.80;6.47;;;;;;;15.57;52.24;100422.78;5008391;28;20026;-75
2023/02/22 11:22:57;;;;;;;10.48;6.25;;;;;;;15.49;52.25;100420.06;5009400;28;20491;-75
2023/02/22 11:25:41;;;;;;;11.68;6.03;;;;;;;15.41;53.02;100422.72;5009633;28;20057;-75
2023/02/22 11:28:29;;;;;;;7.63;5.63;;;;;;;15.29;52.74;100423.16;5012287;28;20507;-76
2023/02/22 11:30:58;;;;;;;9.30;6.05;;;;;;;15.14;52.87;100414.81;5011411;28;20034;-76
2023/02/22 11:33:28;;;;;;;7.70;5.28;;;;;;;15.23;53.02;100430.06;5012937;28;20152;-76